Sat, 2021 September 25. @ 11:23 (Europe/Berlin) | Change timezone

Search

Search

Find competitions and teams quickly

Compare

Compare

Click on this h2h icon anywhere to compare teams and see statistics

Fixtures

Fixtures

View today's matches, tomorrow's fixtures, yesterday's results or fixtures on any specific date by using the calendar


Fixtures - 2021.09.22

Group by: leagues | time
Time Home Score Away 1 X 2 H2H
 Soccer Austria ÖFB Stiegl Cup 2021/2022
18:30 Hohenems VfB 0 : 4 Sturm Graz 34.20 13.10 1.02
19:00 St. Johann im Pongau TSV 1 : 2 Austria Klagenfurt 9.85 6.73 1.20
19:00 Salzburg RB 8 : 0 Kalsdorf SC 1.01 16.15 23.40
19:00 Bregenz 0 : 7 Lafnitz 15.60 8.21 1.12
20:25 Grazer AK 2 : 4 Wattens 3.95 3.73 1.78
 Soccer Belarus Premier League 2021
18:00 Shakhtsyor Salihorsk 2 : 0 Zorka-BDU Minsk 1.29 5.20 8.39
 Soccer Belgium 1e Klasse 2021/2022
20:45 Antwerp 4 : 2 Genk 2.94 3.82 2.20
 Soccer Bosnia Premier Liga 2021/2022
16:00 Leotar Trebinje 2 : 1 Rudar Prijedor 1.50 3.74 5.70
18:00 Siroki Brijeg NK 2 : 1 Tuzla City FK 2.59 2.95 2.60
18:00 Radnik Bijeljina 1 : 0 Zrinjski Mostar 4.37 3.29 1.74
20:30 Sarajevo FK 2 : 0 Zeljeznicar Sarajevo 2.10 2.94 3.41
 Hockey CHL Kontinental Hockey League 2021/2022
14:30 Novosibirsk 1 : 3 Magnitogorsk 3.44 4.25 1.89
16:00 Jekatěrinburg 7 : 3 Dynamo Minsk 1.66 4.84 4.10
18:00 Jaroslavl 2 : 3 Vitiaz Chekhov 1.48 5.00 5.45
18:30 Nižnyj Novgorod 2 : 4 Jokerit Helsinki 2.66 4.23 2.26
 Handball CL Champions League M 2021/2022
18:45 Szeged Pick SC 30 : 21 Croatia Osiguranje-Zagreb 1.06 21.33 12.50
18:45 AAB Handbold 36 : 28 Montpellier HB 1.31 11.33 4.50
20:45 Vardar Vatrost. Skopje 35 : 27 Brestskiy HC Meshkovo 2.33 8.50 1.90
20:45 Kiel 41 : 36 Elverum 1.05 23.00 13.00
 Soccer Copa Libertadores Copa Libertadores 2021
02:30 Palmeiras 0 : 0 Atlético Mineiro 2.73 2.89 2.80
 Basketball Croatia A1 M 2021/2022
20:30 Cedevita Junior 80 : 78 Split Croatia 3.28 16.00 1.36
 Soccer Croatia HR Nogometni Cup 2021/2022
15:30 Bijelo Brdo BSK 1 : 0 Cibalia Vinkovci 2.10 3.34 3.21
15:30 Bjelovar NK 1 : 5 Rudeš Zagreb 6.48 4.84 1.37
15:30 Belišce NK 4 : 0 Vinogradar Lokošin Dol 1.08 9.18 19.70
15:30 HNK Zagreb 0 : 1 Oriolik Oriovac 2.68 3.64 2.28
15:30 Sesvete NK 2 : 3 ot Varteks Varazdin 2.67 3.30 2.44
16:00 Orijent 1 : 4 Dinamo Zagreb 15.85 7.59 1.12
16:30 Rudar Labin 2 : 0 Split NK 2.28 3.52 2.77
18:00 Cakovec 0 : 1 HNK Sibenik 9.60 6.31 1.21
18:30 Karlovac NK 0 : 2 Slaven Belupo 8.72 5.54 1.27
 Hockey Czech Republic 1st League 2021/2022
17:30 Jihlava 3 : 1 Přerov 1.87 4.09 3.10
17:30 Havířov 3 : 4 Prostějov 2.07 4.26 2.60
17:30 Benátky 2 : 3 Třebíč 3.40 4.35 1.72
17:30 Vsetín 6 : 0 Poruba 1.99 4.03 2.85
18:00 Frýdek - Místek 1 : 4 Sokolov 2.43 4.23 2.21
18:00 Šumperk 4 : 3 ot Litoměřice 2.33 4.30 2.28
18:00 Kolín 4 : 3 Slavia Praha 3.48 4.56 1.67
18:00 Kadaň 2 : 4 Vrchlabí 8.20 7.65 1.18
 Hockey Czech Republic Extraleague 2021/2022
18:00 Hradec Králové 2 : 3 Třinec 2.55 4.10 2.28
 Handball Czech Republic Extraleague M 2021/2022
19:00 Jičín 22 : 33 Zubří 1.95 8.17 2.15
 Basketball Czech Republic National League M 2021/2022
17:30 Pardubice 97 : 73 Děčín 1.13 19.00 5.10
18:00 Nymburk 91 : 89 ot Opava 1.11 19.75 5.60
18:00 Brno 110 : 83 Jindřichův Hradec 1.17 18.00 4.60
18:00 Ústí nad Labem 86 : 72 Ostrava NH 1.42 14.25 2.80
18:00 Olomoucko BK 87 : 98 Kolín 1.73 12.50 2.11
19:00 Hradec Králové 95 : 102 USK Praha 2.06 12.50 1.77
 Soccer Czech Republic Pohár 2021/2022
15:30 Prostějov 0 : 4 Bohemians 1905 4.19 4.02 1.66
15:30 Přepeře 0 : 1 Jablonec 11.00 7.30 1.17
15:30 Zápy Sokol 0 : 4 Hradec Králové 7.66 4.94 1.31
15:30 Karviná FC 1 : 0 Chrudim AFK 1.19 6.46 10.15
15:30 Třinec 0 : 1 Teplice 3.26 3.72 1.92
15:30 Zbuzany 1 : 2 Slovácko 1. FC 16.13 9.85 1.09
15:45 Lokomotiva Vltavín 2 : 5 ot Baník Ostrava 11.19 7.19 1.16
16:00 Líšeň SK 0 : 3 Sparta Praha 11.56 7.15 1.15
16:15 Velvary 2 : 4 Slavia Praha 25.50 12.88 1.04
 Basketball Denmark 1st League M 2021/2022
19:00 Svendborg Rabbits 92 : 77 Bakken Bears Academy 1.01 30.00 12.50
 Handball Denmark 1st League W 2021/2022
18:30 Ikast/Bording EH 42 : 30 Nykobing NFH 1.15 14.67 7.17
18:30 Esbjerg 34 : 31 Silkeborg 1.05 20.33 12.17
20:30 Horsens HK 25 : 34 Viborg HK 8.92 17.67 1.10
 Soccer Denmark Landspokal 2021/2022
16:30 B 1913 3 : 4 Sonderjyll 21.30 11.15 1.05
16:30 Aarhus VSK 1 : 2 Nordsjalland FC 12.55 7.44 1.13
16:30 Aalborg Freja 2 : 1 ot(p) Lyseng IF 5.89 5.07 1.37
16:30 Vanlose IF 3 : 4 Vejle BK 11.45 6.13 1.18
16:30 Kjellerup 0 : 5 Midtjylland FC 29.90 14.85 1.02
18:00 Nykobing 3 : 0 FC Kobenhavn 8.77 5.78 1.24
18:00 Fremad Amager 2 : 3 Randers Freja 6.81 4.82 1.36
18:30 Marienlyst 1 : 2 ot Middelfart 2.74 3.61 2.20
 Hockey Denmark SuperBest-ligaen 2021/2022
18:00 Rodovre Kobenhavn 1 : 9 Aalborg 4.85 5.33 1.45
 Soccer Ecuador Primera A 2021
Postp. Aucas - : - Barcelona - - -
 Soccer England Carling Cup 2021/2022
20:30 Brighton 2 : 0 Swansea 1.35 4.87 9.60
20:45 Manchester United 0 : 1 West Ham 1.58 4.13 5.67
20:45 Chelsea 2 : 1(p) Aston Villa 1.36 5.06 8.42
20:45 Wolverhampton Wanderers 2 : 3(p) Tottenham 3.04 3.29 2.40
20:45 Arsenal 3 : 0 AFC Wimbledon 1.12 9.75 21.00
20:45 Millwall 0 : 2 Leicester 6.39 4.27 1.51
 Soccer Estonia Meistriliiga 2021
18:00 Flora Tallin 5 : 2 Narva Trans 1.14 7.38 14.63
 Basketball FIBA Euroleague W 2021/2022
18:00 Atomeromu KSC Szekszárd 63 : 56 ot Sepsi BC Gheorghe 1.56 14.25 2.58
19:30 Schio Famila 69 : 57 Bourges CJM 2.74 14.50 1.50
 Hockey Finland SM Liiga 2021/2022
17:30 Tappara Tampere 3 : 2 ot Kärpät 2.04 3.98 3.04
17:30 KooKoo Kouvola 7 : 4 Kalpa Kuopio 2.53 3.82 2.41
17:30 Sport Vaasa 4 : 0 Lukko Rauma 2.98 4.08 2.03
17:30 Jukurit Mikkeli 3 : 4 ot(p) Ässät Pori 2.89 3.87 2.14
17:30 TPS Turku 3 : 1 Saipa 1.83 4.16 3.48
 Soccer Finland Veikkausliiga 2021
17:30 Kotka TP 1 : 2 Lahti FC 4.78 3.64 1.73
17:30 Honka Espoo 0 : 1 KuPS Kuopio 3.86 3.42 1.92
17:30 Ilves Tampere 2 : 0 IFK Mariehamn 2.11 3.23 3.37
17:30 HJK Helsinki 0 : 2 HIFK Helsinki 1.53 4.05 6.39
17:30 Valkeakoski Haka 4 : 0 SJK Seinajoki 3.16 3.21 2.24
17:30 Inter Turku FC 4 : 0 Oulu 1.41 4.69 6.86
 Soccer France Ligue 1 2021/2022
19:00 Monaco 3 : 1 St. Etienne 1.45 4.51 7.01
19:00 Rennes 6 : 0 Clermont 2.01 3.43 3.77
19:00 Lille 2 : 1 Reims 1.75 3.49 5.20
19:00 Nantes 3 : 1 Brest 2.09 3.40 3.59
19:00 Montpellier 3 : 3 Bordeaux 2.10 3.56 3.45
21:00 Lyon 3 : 1 Troyes 1.32 5.52 9.09
21:00 Lorient 1 : 0 Nice 3.12 3.40 2.28
21:00 Lens 0 : 1 Strasbourg 2.06 3.49 3.58
21:00 Metz 1 : 2 Paris SG 10.40 6.29 1.24
21:00 Angers 0 : 0 Marseille Ol. 3.22 3.20 2.31
 Handball France Pro A W 2021/2022
20:30 Celles 25 : 38 Brest Bretagne 13.67 24.00 1.04
 Soccer Germany 3. Liga 2021/2022
19:00 Freiburg Amat. 0 : 1 Braunschweig 3.50 3.05 2.16
 Handball Germany Bundesliga W 2021/2022
19:30 Dortmund Borussia 37 : 31 Buxtehuder SV 1.11 19.00 8.50
 Hockey Germany DEL 2021/2022
19:30 Iserlohn Roosters 2 : 1 ot München 3.36 4.55 1.82
19:30 Ingolstadt ERC 5 : 4 ot Düsseldorf 2.01 4.58 2.85
19:30 Straubing 0 : 4 Eisbaren 2.61 4.33 2.20
 Soccer Greece Super League 2021/2022
17:15 OFI Crete 0 : 0 Asteras Tripolis 2.53 3.05 2.84
17:15 Panetolikos 1 : 2 PAOK Saloniki 6.36 3.55 1.57
17:15 Olympiakos Piraeus 4 : 1 Apollon Smirnis 1.15 7.37 14.55
19:30 Aris Saloniki 1 : 0 Panathinaikos Athens 1.99 3.03 4.06
19:30 Athens AEK 1 : 0 Lamia 1.30 4.89 9.43
 Soccer Hungary NB I 2021/2022
20:00 Fehervar 0 : 1 Ferencváros Budapešť 3.48 3.49 1.96
 Soccer Italy Serie A 2021/2022
18:30 Spezia 2 : 3 Juventus 7.56 5.09 1.39
18:30 Salernitana 2 : 2 Hellas Verona 3.72 3.27 2.10
20:45 Milan AC 2 : 0 Venezia AC 1.26 6.00 11.50
20:45 Cagliari 0 : 2 Empoli AC 2.01 3.73 3.49
 Soccer Italy Serie B 2021/2022
18:00 Ternana 3 : 1 Parma 2.53 3.24 2.81
20:30 Cremonese 0 : 3 Perugia 1.99 3.25 4.00
 Soccer Japan J League 2021
12:00 Kashima 1 : 2 Kawasaki F. 3.70 3.52 1.93
12:00 Tokyo 1 : 1 Nagoja 2.57 2.91 2.87
12:00 Hiroshima 0 : 1 Cerezo 2.02 3.35 3.56
 Soccer Latvia Virsliga 2021
17:00 Rigas Futbola skola 2 : 1 Metalurgs Liepaja 1.67 3.90 3.95
 Basketball Lithuania 1st League M 2021/2022
17:00 Nevezis Kedainiai 73 : 75 Juventus-LKSK Utenos 3.58 16.75 1.32
17:50 Siauliai BC 84 : 62 Pieno zvaigzdes 1.55 14.25 2.60
 Soccer Mexico Primera Division 2021/2022
04:00 Juarez FC 1 : 0 Real San Luis 2.75 2.98 2.51
 Soccer Moldavia Divizia Nationala 2021/2022
18:00 Serif Tiraspol 4 : 0 Floresti 1.01 13.25 35.00
18:00 Balti CSF 2 : 4 Dinamo Cioburciu 2.35 3.35 2.73
18:00 Milsami Orhei 1 : 0 Zimbru Kišiněv 1.53 4.30 4.87
 Soccer Netherlands Eredivisie 2021/2022
18:45 Deventer 1 : 2 Eindhoven PSV 7.58 4.91 1.39
18:45 NEC Nijmegen 0 : 3 Utrecht 4.20 3.72 1.82
20:00 Groningen 0 : 1 Arnheim Vitesse 2.16 3.52 3.12
21:00 Zwolle FC 1 : 1 Sparta Rotterdam 2.98 3.17 2.46
21:00 Feyenoord 3 : 1 Heerenveen 1.33 5.45 8.61
 Soccer Netherlands KNVB Beker 2021/2022
20:00 Staphorst 3 : 1 Dongen 1.70 4.00 4.10
20:00 Kozakken Boys 2 : 0 Groene Ster 1.55 4.19 4.81
20:00 ADO '20 2 : 1 Koninklijke HFC 3.20 3.70 2.00
20:00 Spakenburg 5 : 2 UNA - - -
20:00 Hoogland 0 : 1 Westlandia - - -
20:00 OSS '20 2 : 1 HSC '21/Brein - - -
20:00 GVV Unitas 1 : 0 Ter Leede 2.24 3.86 2.63
20:00 USV Hercules 1 : 2 ot(p) ACV 2.30 3.50 2.80
20:00 OFC 0 : 2 ot Excelsior Maassluis 2.95 3.50 2.20
20:00 Gemert 3 : 1 TEC 4.34 4.03 1.64
 Handball Norway Eliteserien M 2021/2022
18:30 Haslum HK 37 : 30 Halden TTIF 1.96 8.17 2.23
18:30 Baekkelaget Oslo 28 : 31 Drammen HK 3.75 10.00 1.40
18:30 Fjellhammer 25 : 29 Naerbo 3.73 9.42 1.42
19:15 Kolstad Trondheim 34 : 27 Runar IL 3.57 10.25 1.43
 Handball Norway Eliteserien W 2021/2022
18:00 Oppsal 29 : 34 Sola 7.08 15.00 1.15
18:00 Bergen Tertnes 35 : 29 Larvik HK 1.47 9.50 3.43
18:30 Follo HK 25 : 35 Storhamar 12.00 22.00 1.05
 Soccer Norway NM Cupen 2021
17:00 KFUM Oslo 3 : 1 Kristiansund BK 3.39 3.73 1.91
17:00 Grorud 2 : 3 ot Lilleström 7.47 4.72 1.34
18:00 Valerengen 0 : 3 Odd Grenland 1.69 3.82 4.16
18:00 Ranheim 1 : 2 ot(p) Aalesund 2.71 3.66 2.24
18:00 Kongsvinger 4 : 1 Flekkeroy 1.25 5.80 8.44
18:00 Bryne IL 1 : 4 Molde FK 6.85 4.91 1.35
18:00 Stromsgodset 5 : 1 Stabaek 1.60 4.07 4.48
18:00 Oygarden FK 0 : 5 Sarpsborg 08 6.41 4.47 1.39
18:00 Harstad IL 0 : 5 Brann Bergen 67.00 16.50 1.01
18:00 Alta 1 : 2 Bodo Glimt 5.70 5.25 1.42
18:00 Start Kristiansand 4 : 2 Mjondalen IF 2.49 3.32 2.53
18:00 Nardo 3 : 2 ot(p) Arendal FK 4.95 4.46 1.49
18:00 Hamar Kam 1 : 2 Raufoss 1.54 4.16 4.82
18:00 Sogndal 0 : 2 Asane 1.51 4.34 5.06
18:00 Moss 1 : 7 Sandnes Ulf 4.49 4.44 1.55
20:10 Viking Stavanger 3 : 1 Rosenborg Trondheim 2.10 3.66 2.95
 Soccer Poland Puchar Polski 2021/2022
14:30 Górnik Zabrze 2 : 0 Radomiak Radom 2.16 3.21 3.12
15:30 Orlęta Radzyń Podlaski 2 : 3 Lechia Zielona Góra 1.83 3.50 3.79
16:00 Concordia Elblag 0 : 2 Unia Skierniewice 3.88 3.82 1.75
Postp. Sokół Ostróda - : - Olimpia Elbląg - - -
16:00 Sleza Wroclaw 3 : 2 Chojniczanka Chojnice 4.20 4.01 1.63
17:30 Wigry Suwałki 1 : 3 Legia Warszawa 10.60 5.43 1.23
19:00 Miedz Legnica 4 : 0 Odra Opole 1.78 3.58 4.17
19:00 Motor Lublin 1 : 0 Podbeskidzie Bielsko-Biała 3.41 3.66 1.89
19:15 Stal Rzeszow 2 : 4 Rakow Czestochowa 5.82 4.55 1.42
19:46 Włocłavia Włocławek 0 : 2 Piast Gliwice 27.00 12.00 1.03
20:00 Korona Kielce 4 : 3 ot Plock 3.07 3.26 2.18
20:30 Stal Mielec 1 : 3 Wisla Kraków 4.10 3.82 1.77
 Soccer Romania Cupa Romaniei 2021/2022
14:00 Arges Piesti 1 : 0 ot(p) Botosani SA 2.78 2.94 2.53
15:30 Csikszereda 0 : 1 Chindia Targoviste 3.44 3.09 2.08
15:30 Unirea Slobozia 0 : 1 ASU Poli Timisoara 2.43 2.92 2.95
15:30 Concordia Chiajna 0 : 1 ot Gaz Metan Mediaş 3.27 3.28 2.08
15:30 Gloria Buzău 2 : 1 ot Academica Clinceni 2.86 3.26 2.29
15:30 Oradea 1910 ACS 0 : 1 Hermannstadt Sibiu 3.30 3.22 2.07
15:30 Slatina CSM 1 : 2 Dunarea Calarasi 1.88 3.33 3.81
17:00 Farul Constanta 0 : 1 Sepsi Sfantu Gheorghe 2.39 3.06 2.88
20:00 Hunedoara 3 : 5 ot FCSB Bukurešt 15.81 7.39 1.12
 Soccer Russia Cup 2021/2022
11:30 Dinamo Barnaul 0 : 1 Nizhniy Novgorod FK 6.31 3.93 1.45
14:00 Dynamo Makhachkala 1 : 2 ot(p) Ufa FK 8.00 4.44 1.33
15:00 Kairat Moscow 0 : 3 Terek Groznyj 8.88 4.63 1.30
15:00 Leningradets 0 : 2 Krasnodar FK 19.50 10.00 1.05
15:00 Znamya Noginsk 0 : 10 Krylya Sovetov Samara 10.63 6.88 1.16
17:00 Mordovia Saransk 2 : 1 ot(p) Khimki FK 7.75 4.20 1.36
17:00 Dynamo Brjansk 1 : 6 Arsenal Tula 8.06 4.64 1.31
17:00 Dynamo Stavropol 0 : 6 Dynamo Moskva 17.25 8.19 1.09
18:30 Chayka 1 : 0 Rostselmash Rostov 9.50 5.31 1.23
 Soccer Scotland League Cup 2021/2022
20:45 Dundee FC 0 : 2 St. Johnstone 2.65 2.86 2.73
20:45 Glasgow Rangers 2 : 0 Livingston 1.19 5.80 12.10
 Soccer Serbia Super Liga 2021/2022
15:30 Radnički Kragujevac 2 : 1 Novi Pazar 2.17 3.37 2.90
17:30 Spartak Subotica 1 : 2 Proleter Novi Sad 1.92 3.40 3.50
17:30 Napredak Krusevac 1 : 2 Čukarički Bělehrad 2.78 2.95 2.47
 Soccer Slovakia Cup 2021/2022
15:30 Spartak Medzilaborce 1 : 4(p) Vranov 5.11 4.66 1.47
15:30 Častkovce 1 : 2 ot(p) Púchov 4.02 4.02 1.67
15:30 Trebatice 0 : 9 Zlaté Moravce 20.83 10.67 1.05
15:30 Lokomotiva Košice 1 : 2 Lipany 5.56 5.28 1.38
15:30 Bánová 0 : 1 ot(p) Žilina 21.80 10.35 1.06
15:30 Medzev 1 : 3 Humenné 13.35 6.88 1.14
15:30 Komárno 1 : 0 ot(p) Dunajská Streda 12.25 5.27 1.22
15:30 Podbrezova 2 : 1 Banská Bystrica 2.32 3.61 2.58
15:30 Lučenec 2 : 5 Košice FC 5.07 4.76 1.46
15:30 Gbely 0 : 3 Senica SH 21.50 11.15 1.05
 Soccer Slovakia Super Liga 2021/2022
18:00 Ružomberok 1 : 0 Slovan Bratislava 5.39 3.71 1.58
 Soccer Slovenia 1. SNL 2021/2022
17:00 Radomlje 0 : 2 Bravo Publikum 3.34 3.15 2.14
20:15 Olimpija Lublaň 2 : 1 Domzale 1.87 3.29 4.01
 Soccer Slovenia 2. SNL 2021/2022
16:00 Krsko Posavje 0 : 1 Gorica Nova Gorica 4.73 4.38 1.50
16:00 Dekani 0 : 0 Bilje 2.77 3.87 2.05
 Basketball Spain ACB M 2021/2022
21:30 C.B. Gran Canaria 64 : 82 Barcelona FC 4.20 18.75 1.27
 Soccer Spain La Liga 2021/2022
19:30 Espaňol Barcelona 1 : 0 Alavés 1.78 3.47 4.89
19:30 Sevilla 3 : 1 Valencia FC 1.61 3.89 5.73
22:00 Villarreal 4 : 1 Elche FC 1.45 4.34 7.37
22:00 Real Madrid 6 : 1 Mallorca 1.21 6.76 12.60
 Soccer Sweden Allsvenskan 2021
19:00 Örebro SK 2 : 0 Östersunds FK 2.11 3.41 3.36
19:00 Djurgarden IF 3 : 2 Degerfors 1.33 5.26 8.03
19:00 Sirius 2 : 4 Norrkoping 3.17 3.62 2.10
19:00 Elfsborg Boras IF 0 : 1 Malmö FF 3.02 3.45 2.26
 Handball Sweden Elitserien M 2021/2022
19:00 Aranäs HK 30 : 29 Redbergslids IK 2.88 9.08 1.61
 Soccer Switzerland Challenge League 2021/2022
18:00 Kriens 0 : 2 Yverdon 2.67 3.42 2.35
20:30 Xamax Neuchatel 3 : 1 Stade Lausanne Ouchy 2.19 3.51 2.82
 Hockey Switzerland Nationalliga B 2021/2022
19:45 Olten 4 : 3 Visp 1.75 4.25 3.42
 Soccer Switzerland Super League 2021/2022
18:00 Lausanne 1 : 6 Young Boys Bern 6.51 4.83 1.41
20:30 St. Gallen 0 : 2 Basel FC 2.66 3.73 2.36
 Soccer Turkey Super League 2021/2022
16:00 Gaziantepspor BB 1 : 0 Istanbul Büyüksehir 2.62 3.27 2.63
19:00 Kayserispor II 3 : 0 Galatasaray 4.11 3.58 1.81
19:00 Göztepe 0 : 2 Hatayspor Antakya 2.40 3.29 2.86
 Soccer Ucraine Cup 2021/2022
12:00 Tavria Simferopol 1 : 3 Oleksandrija FK 7.79 4.36 1.36
14:00 Cherkasy FK 2 : 1 Inhulets 3.60 3.60 1.83
16:00 Volyn 0 : 1 ot(p) Illichivets Mariupol 3.38 3.50 1.93
16:00 Shevchenkivka 1 : 2 Dněpr Dněpropetrovsk 13.00 6.68 1.15
18:00 Obolon 0 : 1 Veres Rivne 3.53 3.30 1.95

Sport statistics

  • soccer, basketball, handball and icehockey statistics from more than 150 leagues (results, tables, fixtures, other usefull statistics, bookies odds etc.)
  • other useful things: comparision of teams and leagues, streaks, selections, predictions, head-to-head
  • the statistics are updated three times each day
  • RSS feeds for the upcoming matches from each sport, just click on the RSS feed in the URL field of your browser
  • archived competitions, most of them from 2003

For a detailed description of all functions and their usage check our Help page.